Latest Weather Observations for Ballarat

IDV60801

Issued at 8:05 pm EDT Monday 24 November 2014 (issued every 30 minutes, with the page automatically refreshed every 10 minutes)

About weather observations | Map of weather stations | Latest weather observations for VIC | Other Formats
Station Details ID: 089002 Name: BALLARAT AERODROME Lat: -37.51 Lon: 143.79 Height: 435.2 m
Data from the previous 72 hours. | See also: Recent months at Ballarat
Date/Time
EDT
Temp
°C
App
Temp
°C
Dew
Point
Rel
Hum
%
Delta-T
°C
Wind Press
QNH
hPa
Press
MSL
hPa
Rain
since 9 am
mm
Dir
 
Spd
km/h
Gust
km/h
Spd
kts
Gust
kts
24/08:00pm 11.1 8.7 10.2 94 0.5 SSW 13 22 7 12 1012.3 1011.7 11.0
24/07:30pm 11.2 9.1 9.9 92 0.7 SW 11 19 6 10 1011.8 1011.2 11.0
24/07:00pm 10.7 8.0 9.1 90 0.8 SW 13 17 7 9 1011.8 1011.2 11.0
24/06:36pm 10.7 7.7 9.1 90 0.8 SSW 15 26 8 14 1011.5 1010.9 11.0
24/06:30pm 10.6 7.2 9.0 90 0.8 SSW 17 26 9 14 1011.2 1010.6 11.0
24/06:00pm 10.3 6.1 9.8 97 0.3 SW 22 32 12 17 1010.2 1009.6 11.0
24/05:30pm 11.6 6.7 11.4 99 0.1 SSW 28 44 15 24 1009.6 1009.0 11.0
24/05:21pm 12.1 6.6 11.8 98 0.2 SW 32 50 17 27 1009.2 1008.6 11.0
24/05:12pm 14.0 9.3 12.0 88 1.1 SW 28 50 15 27 1008.7 1008.1 11.0
24/05:00pm 15.6 12.2 12.5 82 1.7 SW 22 35 12 19 1008.1 1007.5 11.0
24/04:30pm 15.5 12.5 12.1 80 1.9 SW 19 28 10 15 1008.2 1007.6 11.0
24/04:00pm 15.1 12.1 12.6 85 1.4 SSW 20 28 11 15 1008.2 1007.6 11.0
24/03:56pm 15.3 12.7 13.3 88 1.1 SSW 19 28 10 15 1008.4 1007.7 11.0
24/03:30pm 14.8 11.7 14.6 99 0.1 WSW 24 35 13 19 1008.5 1007.9 11.0
24/03:00pm 14.4 11.2 14.2 99 0.1 SW 24 30 13 16 1008.2 1007.6 11.0
24/02:30pm 15.7 14.7 15.7 100 0.0 W 15 24 8 13 1008.1 1007.5 11.0
24/02:20pm 15.8 15.3 15.8 100 0.0 W 13 17 7 9 1008.2 1007.6 11.0
24/02:16pm 15.6 15.0 15.6 100 0.0 W 13 17 7 9 1008.4 1007.7 11.0
24/02:00pm 15.9 15.4 15.9 100 0.0 WNW 13 17 7 9 1008.6 1008.0 10.4
24/01:59pm 15.9 15.4 15.9 100 0.0 WNW 13 17 7 9 1008.7 1008.1 10.4
24/01:36pm 15.8 15.9 15.6 99 0.1 W 9 13 5 7 1008.5 1007.9 10.0
24/01:30pm 15.9 15.3 15.7 99 0.1 W 13 19 7 10 1008.6 1008.0 10.0
24/01:22pm 15.9 14.6 15.7 99 0.1 W 17 24 9 13 1008.9 1008.3 9.2
24/01:00pm 16.4 16.0 16.2 99 0.1 N 13 17 7 9 1008.0 1007.4 7.8
24/12:30pm 15.9 15.3 15.7 99 0.1 NNW 13 17 7 9 1009.0 1008.4 7.8
24/12:00pm 15.8 15.2 15.6 99 0.1 N 13 17 7 9 1009.1 1008.5 7.4
24/11:33am 15.7 14.3 15.5 99 0.1 NNE 17 24 9 13 1009.4 1008.8 7.2
24/11:30am 15.7 14.7 15.5 99 0.1 NNE 15 22 8 12 1009.4 1008.8 7.2
24/11:12am 15.0 12.9 14.8 99 0.1 NE 19 20 10 11 1009.9 1009.3 6.4
24/11:04am 15.3 13.7 15.0 98 0.2 NW 17 22 9 12 1012.0 1011.4 4.4
24/11:00am 15.4 14.2 15.1 98 0.2 NNW 15 19 8 10 1011.5 1010.9 3.6
24/10:30am 15.7 14.5 15.1 96 0.4 NNE 15 19 8 10 1009.9 1009.3 2.8
24/10:27am 15.6 14.2 14.6 94 0.6 NNE 15 19 8 10 1009.9 1009.3 2.8
24/10:01am 15.9 15.4 12.5 80 1.9 W 7 17 4 9 1010.6 1010.1 1.0
24/10:00am 16.0 15.5 12.2 78 2.1 WSW 6 15 3 8 1010.4 1009.9 1.0
24/09:30am 16.5 14.7 12.1 75 2.5 NNE 13 17 7 9 1009.9 1009.3 0.0
24/09:00am 16.0 15.2 12.9 82 1.8 N 9 13 5 7 1010.2 1009.6 0.0
24/08:30am 16.4 13.4 12.0 75 2.5 WNW 19 24 10 13 1011.1 1010.5 0.0
24/08:00am 16.3 13.2 11.5 73 2.7 NW 19 19 10 10 1010.9 1010.3 0.0
24/07:32am 18.6 12.9 8.3 51 5.4 WNW 28 46 15 25 1010.9 1010.3 0.0
24/07:30am 18.7 13.3 8.1 50 5.6 WNW 26 46 14 25 1010.7 1010.2 0.0
24/07:28am 17.9 13.8 8.5 54 4.9 NW 20 33 11 18 1011.0 1010.4 0.0
24/07:22am 18.8 11.4 8.5 51 5.5 W 37 46 20 25 1011.1 1010.5 0.0
24/07:20am 19.8 13.3 8.2 47 6.1 NW 32 39 17 21 1010.3 1009.7 0.0
24/07:00am 19.4 12.7 7.5 46 6.2 NNE 32 43 17 23 1007.7 1007.1 0.0
24/06:30am 18.7 13.6 7.5 48 5.8 NNE 24 35 13 19 1007.9 1007.3 0.0
24/06:00am 17.3 13.1 7.6 53 5.0 N 19 24 10 13 1008.4 1007.7 0.0
24/05:30am 17.0 13.3 7.9 55 4.7 NNE 17 22 9 12 1008.4 1007.7 0.0
24/05:00am 14.2 11.6 9.2 72 2.6 N 13 17 7 9 1008.9 1008.3 0.0
24/04:30am 15.1 13.4 7.6 61 3.8 NW 6 7 3 4 1009.8 1009.2 0.0
24/04:00am 13.8 11.9 7.6 66 3.1 NNE 7 9 4 5 1009.3 1008.7 0.0
24/03:30am 14.2 11.6 7.9 66 3.2 NE 11 15 6 8 1009.5 1008.9 0.0
24/03:00am 13.6 11.9 7.4 66 3.1 NNE 6 9 3 5 1009.9 1009.3 0.0
24/02:30am 13.4 11.6 7.8 69 2.8 NNE 7 11 4 6 1010.5 1010.0 0.0
24/02:00am 13.9 13.6 8.5 70 2.8 CALM 0 6 0 3 1010.7 1010.2 0.0
24/01:30am 14.4 14.1 8.8 69 2.9 CALM 0 6 0 3 1011.3 1010.7 0.0
24/01:00am 14.2 12.9 9.2 72 2.6 ESE 6 9 3 5 1011.6 1011.0 0.0
24/12:30am 15.0 14.1 10.6 75 2.4 ESE 6 7 3 4 1011.7 1011.1 0.0
24/12:00am 14.6 13.8 11.2 80 1.9 ESE 6 7 3 4 1012.3 1011.7 0.0
 
Date/Time
EDT
Temp
°C
App
Temp
°C
Dew
Point
Rel
Hum
%
Delta-T
°C
Wind Press
QNH
hPa
Press
MSL
hPa
Rain
since 9 am
mm
Dir
 
Spd
km/h
Gust
km/h
Spd
kts
Gust
kts
23/11:30pm 15.6 16.1 11.6 77 2.2 CALM 0 0 0 0 1012.9 1012.4 0.0
23/11:00pm 14.8 13.9 11.4 80 1.9 E 7 9 4 5 1013.0 1012.5 0.0
23/10:30pm 14.9 13.6 11.3 79 2.0 E 9 9 5 5 1013.7 1013.1 0.0
23/10:00pm 15.5 14.2 11.1 75 2.4 SE 9 11 5 6 1013.8 1013.2 0.0
23/09:30pm 16.4 15.1 11.3 72 2.8 SE 9 13 5 7 1013.7 1013.1 0.0
23/09:00pm 17.1 15.1 11.4 69 3.2 E 13 19 7 10 1013.3 1012.7 0.0
23/08:30pm 17.6 13.9 11.4 67 3.4 ESE 22 28 12 15 1012.7 1012.2 0.0
23/08:00pm 18.8 15.4 11.1 61 4.3 ESE 20 30 11 16 1012.2 1011.6 0.0
23/07:30pm 20.6 17.7 11.0 54 5.4 ESE 17 20 9 11 1012.2 1011.6 0.0
23/07:00pm 21.4 18.1 10.9 51 5.9 E 19 24 10 13 1012.1 1011.5 0.0
23/06:30pm 24.1 21.6 4.0 27 10.1 SW 6 13 3 7 1012.2 1011.6 0.0
23/06:00pm 24.7 21.4 4.5 27 10.3 SW 11 17 6 9 1012.3 1011.7 0.0
23/05:30pm 24.9 20.6 3.0 24 10.9 SW 15 22 8 12 1012.3 1011.7 0.0
23/05:00pm 25.3 21.0 3.3 24 11.0 SW 15 22 8 12 1012.3 1011.7 0.0
23/04:30pm 26.3 20.8 4.1 24 11.3 SW 22 30 12 16 1012.2 1011.6 0.0
23/04:00pm 26.8 22.1 5.1 25 11.3 WSW 19 32 10 17 1011.7 1011.1 0.0
23/03:30pm 26.2 22.1 6.3 28 10.6 WSW 17 24 9 13 1011.7 1011.1 0.0
23/03:00pm 25.8 21.5 6.9 30 10.1 SW 19 28 10 15 1011.6 1011.0 0.0
23/02:30pm 25.8 22.0 7.4 31 9.9 WSW 17 24 9 13 1011.7 1011.1 0.0
23/02:00pm 25.5 22.0 7.1 31 9.9 WSW 15 22 8 12 1011.6 1011.0 0.0
23/01:30pm 25.1 22.8 9.0 36 8.9 W 11 17 6 9 1011.6 1011.0 0.0
23/01:00pm 24.2 21.2 7.8 35 8.9 W 13 20 7 11 1011.7 1011.1 0.0
23/12:30pm 23.7 20.3 6.0 32 9.2 W 13 20 7 11 1011.8 1011.2 0.0
23/12:00pm 22.6 19.1 3.7 29 9.4 SW 11 22 6 12 1012.0 1011.4 0.0
23/11:30am 22.6 19.9 7.2 37 8.1 WNW 11 20 6 11 1012.2 1011.6 0.0
23/11:00am 21.2 19.3 7.4 41 7.3 WNW 7 13 4 7 1012.4 1011.9 0.0
23/10:30am 20.6 19.3 9.8 50 5.9 NW 7 13 4 7 1012.7 1012.2 0.0
23/10:00am 20.2 19.4 11.1 56 5.1 N 6 11 3 6 1012.9 1012.4 0.0
23/09:30am 18.4 17.5 10.5 60 4.3 WSW 6 9 3 5 1013.1 1012.6 0.0
23/09:00am 17.6 16.7 11.4 67 3.4 SSE 7 11 4 6 1012.9 1012.4 0.0
23/08:30am 16.4 14.9 12.0 75 2.5 SSE 11 13 6 7 1012.8 1012.3 0.0
23/08:00am 13.7 12.3 13.4 98 0.2 S 13 15 7 8 1012.7 1012.2 0.0
23/07:30am 13.1 12.3 12.8 98 0.2 SSW 9 11 5 6 1012.4 1011.9 0.0
23/07:00am 11.9 11.3 11.7 99 0.1 S 6 9 3 5 1012.3 1011.7 0.0
23/06:30am 11.1 10.1 10.9 99 0.1 SSE 7 9 4 5 1012.0 1011.4 0.0
23/06:00am 11.6 10.7 11.4 99 0.1 S 7 9 4 5 1011.8 1011.2 0.0
23/05:42am 11.5 10.6 11.3 99 0.1 SSE 7 9 4 5 1011.8 1011.2 0.0
23/05:30am 11.5 10.6 11.5 100 0.0 ESE 7 9 4 5 1011.8 1011.2 0.0
23/05:00am 11.7 11.1 11.7 100 0.0 ESE 6 9 3 5 1011.5 1010.9 0.0
23/04:30am 11.5 9.8 11.3 99 0.1 S 11 15 6 8 1011.3 1010.7 0.0
23/04:00am 11.9 10.0 11.7 99 0.1 S 13 17 7 9 1011.1 1010.5 0.0
23/03:57am 11.9 10.0 11.7 99 0.1 S 13 17 7 9 1011.2 1010.6 0.0
23/03:30am 11.9 10.3 11.7 99 0.1 SSW 11 17 6 9 1011.1 1010.5 0.0
23/03:00am 11.9 10.7 11.7 99 0.1 S 9 11 5 6 1011.2 1010.6 0.0
23/02:30am 11.5 11.1 11.2 98 0.2 SSE 4 6 2 3 1011.1 1010.5 0.0
23/02:00am 12.3 11.6 12.0 98 0.2 S 7 9 4 5 1011.0 1010.4 0.0
23/01:30am 12.9 11.9 12.3 96 0.3 S 9 13 5 7 1011.0 1010.4 0.0
23/01:00am 13.4 12.7 12.0 91 0.8 S 7 11 4 6 1011.2 1010.6 0.0
23/12:30am 13.8 13.2 12.4 91 0.8 SSW 7 11 4 6 1011.3 1010.7 0.0
23/12:00am 14.2 12.5 12.6 90 0.9 SSW 13 17 7 9 1010.9 1010.3 0.0
 
Date/Time
EDT
Temp
°C
App
Temp
°C
Dew
Point
Rel
Hum
%
Delta-T
°C
Wind Press
QNH
hPa
Press
MSL
hPa
Rain
since 9 am
mm
Dir
 
Spd
km/h
Gust
km/h
Spd
kts
Gust
kts
22/11:30pm 14.8 13.6 12.7 87 1.2 SSW 11 17 6 9 1010.7 1010.2 0.0
22/11:00pm 15.6 13.2 12.7 83 1.6 S 17 22 9 12 1010.4 1009.9 0.0
22/10:30pm 16.1 14.2 11.9 76 2.3 S 13 15 7 8 1010.5 1010.0 0.0
22/10:00pm 17.5 15.6 11.8 69 3.2 NW 13 19 7 10 1010.0 1009.4 0.0
22/09:30pm 19.1 16.2 12.4 65 3.8 N 19 24 10 13 1009.6 1009.0 0.0
22/09:00pm 20.1 17.0 11.6 58 4.8 N 19 26 10 14 1008.8 1008.2 0.0
22/08:30pm 21.1 17.1 10.6 51 5.9 N 22 30 12 16 1008.6 1008.0 0.0
22/08:00pm 22.4 17.0 9.6 44 7.1 N 28 37 15 20 1008.0 1007.4 0.0
22/07:30pm 23.3 17.1 9.3 41 7.7 N 32 41 17 22 1007.8 1007.2 0.0
22/07:03pm 24.1 16.8 8.9 38 8.4 NNW 37 56 20 30 1007.7 1007.1 0.0
22/07:00pm 24.2 16.7 9.4 39 8.2 NNW 39 56 21 30 1007.7 1007.1 0.0
22/06:30pm 25.7 17.9 9.9 37 8.9 NNW 41 54 22 29 1007.7 1007.1 0.0
22/06:00pm 26.1 17.9 8.1 32 9.9 NNW 41 61 22 33 1007.3 1006.7 0.0
22/05:53pm 26.3 17.5 7.4 30 10.2 NNW 43 61 23 33 1007.5 1006.9 0.0
22/05:30pm 27.1 18.6 8.5 31 10.3 NNW 43 56 23 30 1007.4 1006.8 0.0
22/05:15pm 26.5 17.8 8.5 32 9.9 NNW 44 63 24 34 1007.3 1006.7 0.0
22/05:00pm 26.4 17.3 8.4 32 9.9 NNW 46 59 25 32 1007.1 1006.5 0.0
22/04:35pm 27.4 18.5 9.3 32 10.2 NNW 46 65 25 35 1007.1 1006.5 0.0
22/04:30pm 27.4 17.8 9.3 32 10.2 N 50 67 27 36 1007.1 1006.5 0.0
22/04:00pm 28.0 18.0 9.3 31 10.6 NNW 52 72 28 39 1007.1 1006.5 0.0
22/03:32pm 27.4 18.4 7.3 28 10.9 N 44 63 24 34 1007.5 1006.9 0.0
22/03:30pm 27.3 17.9 7.2 28 10.9 N 46 63 25 34 1007.6 1007.0 0.0
22/03:00pm 27.1 18.4 7.5 29 10.7 N 43 65 23 35 1008.4 1007.7 0.0
22/02:58pm 26.8 17.8 6.2 27 11.0 N 43 65 23 35 1008.2 1007.6 0.0
22/02:30pm 25.8 16.6 6.4 29 10.3 N 44 59 24 32 1008.9 1008.3 0.0
22/02:00pm 24.1 14.5 6.4 32 9.3 N 46 63 25 34 1009.2 1008.6 0.0
22/01:39pm 23.6 14.4 5.5 31 9.3 N 43 61 23 33 1009.6 1009.0 0.0
22/01:30pm 23.5 14.7 5.4 31 9.3 N 41 54 22 29 1009.6 1009.0 0.0
22/01:00pm 23.0 14.7 5.9 33 8.9 N 39 54 21 29 1009.9 1009.3 0.0
22/12:30pm 21.2 14.4 7.1 40 7.4 NNE 32 43 17 23 1010.1 1009.5 0.0
22/12:00pm 19.3 15.3 8.9 51 5.6 NNE 20 32 11 17 1011.2 1010.6 0.0
22/11:30am 17.7 14.7 10.8 64 3.8 ENE 17 20 9 11 1011.4 1010.8 0.0
22/11:14am 15.6 12.1 10.8 73 2.6 NE 20 24 11 13 1011.4 1010.8 0.0
22/11:00am 15.9 12.5 10.7 71 2.8 W 19 28 10 15 1013.6 1013.0 0.0
22/10:56am 16.2 12.4 11.2 72 2.7 W 22 28 12 15 1013.8 1013.2 0.0
22/10:30am 18.1 12.5 7.2 49 5.6 N 26 33 14 18 1011.7 1011.1 0.0
22/10:00am 17.5 14.5 7.8 53 5.0 N 13 19 7 10 1011.7 1011.1 0.0
22/09:30am 15.8 12.5 8.1 60 4.0 NNE 15 28 8 15 1011.6 1011.0 0.0
22/09:00am 16.4 12.6 6.0 50 5.2 NNE 15 19 8 10 1011.9 1011.3 0.0
22/08:30am 16.3 12.6 6.2 51 5.0 NNE 15 19 8 10 1012.0 1011.4 0.0
22/08:00am 16.0 13.3 7.2 56 4.5 N 11 15 6 8 1012.0 1011.4 0.0
22/07:30am 13.5 11.1 8.8 73 2.4 NNE 11 15 6 8 1011.5 1010.9 0.0
22/07:00am 12.5 10.0 8.4 76 2.1 N 11 13 6 7 1011.4 1010.8 0.0
22/06:30am 12.6 10.4 6.2 65 3.1 N 7 11 4 6 1011.1 1010.5 0.0
22/06:00am 11.2 7.7 7.1 76 2.0 NNE 15 19 8 10 1010.3 1009.7 0.0
22/05:30am 10.4 7.1 6.4 76 1.9 NNE 13 15 7 8 1010.2 1009.6 0.0
22/05:00am 9.0 6.0 6.1 82 1.4 NNE 11 13 6 7 1010.4 1009.9 0.0
22/04:30am 10.1 8.1 6.4 78 1.8 NNE 6 7 3 4 1010.4 1009.9 0.0
22/04:00am 10.5 7.3 7.0 79 1.7 NE 13 17 7 9 1010.2 1009.6 0.0
22/03:30am 9.5 6.7 6.8 83 1.3 NE 11 13 6 7 1010.1 1009.5 0.0
22/03:00am 9.9 9.0 6.2 78 1.8 CALM 0 0 0 0 1010.6 1010.1 0.0
22/02:30am 10.2 8.4 7.1 81 1.5 NNE 6 7 3 4 1010.9 1010.3 0.0
22/02:00am 9.6 7.2 7.0 84 1.3 NE 9 11 5 6 1011.2 1010.6 0.0
22/01:30am 9.6 7.8 8.0 90 0.8 ENE 7 11 4 6 1011.5 1010.9 0.0
22/01:00am 9.7 8.0 8.3 91 0.7 ENE 7 7 4 4 1011.9 1011.3 0.0
22/12:30am 10.0 8.4 8.6 91 0.7 E 7 9 4 5 1012.2 1011.6 0.0
22/12:00am 9.7 7.4 7.5 86 1.1 E 9 11 5 6 1012.2 1011.6 0.0
 
Date/Time
EDT
Temp
°C
App
Temp
°C
Dew
Point
Rel
Hum
%
Delta-T
°C
Wind Press
QNH
hPa
Press
MSL
hPa
Rain
since 9 am
mm
Dir
 
Spd
km/h
Gust
km/h
Spd
kts
Gust
kts
21/11:30pm 10.7 9.2 8.5 86 1.1 E 6 9 3 5 1012.5 1012.0 0.0
21/11:00pm 12.2 11.9 8.5 78 1.9 CALM 0 0 0 0 1012.9 1012.4 0.0
21/10:30pm 12.6 11.3 9.2 80 1.8 NE 6 9 3 5 1012.7 1012.2 0.0
21/10:00pm 13.6 10.7 9.5 76 2.1 E 15 20 8 11 1012.5 1012.0 0.0
21/09:30pm 13.6 10.7 8.0 69 2.8 E 13 19 7 10 1012.1 1011.5 0.0
21/09:00pm 15.4 13.3 5.9 53 4.7 SSE 6 7 3 4 1011.9 1011.3 0.0
21/08:30pm 17.6 15.5 5.9 46 5.8 S 6 7 3 4 1011.9 1011.3 0.0

Other Formats:

Comma delimited format used in spreadsheet applications
http://www.bom.gov.au/fwo/IDV60801/IDV60801.94852.axf

JavaScript Object Notation format (JSON) in row-major order
http://www.bom.gov.au/fwo/IDV60801/IDV60801.94852.json